Time;durP1;ratioP1;P1;durP2;ratioP2;P2;SDS_P1;SDS_P2;PMS_P1;PMS_P2;Temp;Humidity;BMP_temperature;BMP_pressure;BME280_temperature;BME280_humidity;BME280_pressure;Samples;Min_cycle;Max_cycle;Signal;HPM_P1;HPM_P2
2023/09/17 00:01:23;;;;;;;;;;;20.40;99.90;;;;;;6710338;88;20678;-78
2023/09/17 00:11:23;;;;;;;;;;;20.40;99.90;;;;;;6703043;88;20097;-78
2023/09/17 00:21:24;;;;;;;;;;;20.50;99.90;;;;;;6709081;88;20056;-77
2023/09/17 00:31:24;;;;;;;;;;;20.50;99.90;;;;;;6707923;88;20215;-77
2023/09/17 00:41:26;;;;;;;;;;;20.60;99.90;;;;;;6703916;88;20110;-77
2023/09/17 00:51:26;;;;;;;;;;;20.70;99.90;;;;;;6705109;88;20056;-77
2023/09/17 01:01:27;;;;;;;;;;;20.70;99.90;;;;;;6706279;88;20072;-77
2023/09/17 01:11:27;;;;;;;;;;;20.80;99.90;;;;;;6714983;88;20582;-78
2023/09/17 01:21:39;;;;;;;;;;;20.70;99.90;;;;;;6705426;88;20621;-77
2023/09/17 01:31:40;;;;;;;;;;;20.50;99.90;;;;;;6704406;88;20158;-76
2023/09/17 01:41:43;;;;;;;;;;;20.30;99.90;;;;;;6705821;88;20092;-76
2023/09/17 01:51:44;;;;;;;;;;;20.20;99.90;;;;;;6704779;88;20539;-76
2023/09/17 02:01:44;;;;;;;;;;;20.30;99.90;;;;;;6703121;88;20070;-77
2023/09/17 02:11:44;;;;;;;;;;;20.10;99.90;;;;;;6709294;88;20211;-77
2023/09/17 02:21:45;;;;;;;;;;;20.10;99.90;;;;;;6704143;88;20133;-77
2023/09/17 02:31:45;;;;;;;;;;;20.10;99.90;;;;;;6700583;88;20076;-76
2023/09/17 02:41:46;;;;;;;;;;;20.00;99.90;;;;;;6702427;88;20574;-75
2023/09/17 02:51:46;;;;;;;;;;;20.00;99.90;;;;;;6701092;88;20072;-76
2023/09/17 03:01:47;;;;;;;;;;;20.10;99.90;;;;;;6704597;88;20183;-76
2023/09/17 03:11:47;;;;;;;;;;;19.90;99.90;;;;;;6701337;88;20134;-76
2023/09/17 03:21:48;;;;;;;;;;;19.80;99.90;;;;;;6706920;88;20488;-77
2023/09/17 03:31:48;;;;;;;;;;;19.60;99.90;;;;;;6708649;88;20069;-76
2023/09/17 03:41:49;;;;;;;;;;;19.40;99.90;;;;;;6709402;88;20507;-78
2023/09/17 03:51:50;;;;;;;;;;;19.40;99.90;;;;;;6714121;88;20081;-78
2023/09/17 04:01:50;;;;;;;;;;;19.30;99.90;;;;;;6720973;88;20649;-79
2023/09/17 04:11:51;;;;;;;;;;;19.30;99.90;;;;;;6721519;88;20139;-79
2023/09/17 04:21:51;;;;;;;;;;;19.20;99.90;;;;;;6711514;88;20060;-78
2023/09/17 04:31:52;;;;;;;;;;;19.10;99.90;;;;;;6714998;88;20059;-79
2023/09/17 04:41:52;;;;;;;;;;;19.10;99.90;;;;;;6714515;88;20098;-79
2023/09/17 04:51:52;;;;;;;;;;;19.10;99.90;;;;;;6714154;88;20099;-78
2023/09/17 05:01:53;;;;;;;;;;;19.00;99.90;;;;;;6713371;88;20083;-79
2023/09/17 05:11:53;;;;;;;;;;;19.00;99.90;;;;;;6712237;88;20074;-80
2023/09/17 05:21:54;;;;;;;;;;;18.90;99.90;;;;;;6710348;88;20077;-78
2023/09/17 05:31:54;;;;;;;;;;;18.80;99.90;;;;;;6706921;88;20077;-79
2023/09/17 05:41:55;;;;;;;;;;;18.80;99.90;;;;;;6702531;88;20495;-79
2023/09/17 05:51:56;;;;;;;;;;;18.80;99.90;;;;;;6706223;78;20078;-77
2023/09/17 06:01:58;;;;;;;;;;;18.80;99.90;;;;;;6687370;88;20107;-77
2023/09/17 06:11:59;;;;;;;;;;;18.60;99.90;;;;;;6679900;88;20588;-76
2023/09/17 06:21:59;;;;;;;;;;;18.80;99.90;;;;;;6681618;88;20185;-77
2023/09/17 06:32:00;;;;;;;;;;;18.90;99.90;;;;;;6681363;88;20615;-76
2023/09/17 06:42:00;;;;;;;;;;;19.20;99.90;;;;;;6680452;88;20157;-76
2023/09/17 06:52:01;;;;;;;;;;;19.60;99.90;;;;;;6680457;89;20102;-77
2023/09/17 07:02:01;;;;;;;;;;;20.00;99.90;;;;;;6680493;88;20076;-76
2023/09/17 07:12:02;;;;;;;;;;;20.30;99.90;;;;;;6680725;88;20532;-75
2023/09/17 07:22:02;;;;;;;;;;;20.70;99.90;;;;;;6679809;88;20065;-76
2023/09/17 07:32:03;;;;;;;;;;;21.20;99.90;;;;;;6685434;88;20072;-75
2023/09/17 07:42:04;;;;;;;;;;;21.60;99.90;;;;;;6679690;88;20080;-76
2023/09/17 07:52:04;;;;;;;;;;;22.00;99.90;;;;;;6680824;88;20090;-76
2023/09/17 08:02:05;;;;;;;;;;;22.20;99.90;;;;;;6680812;88;20476;-76
2023/09/17 08:12:05;;;;;;;;;;;22.40;99.90;;;;;;6682572;88;20129;-76
2023/09/17 08:22:06;;;;;;;;;;;23.00;99.90;;;;;;6688266;88;20502;-76
2023/09/17 08:32:07;;;;;;;;;;;23.10;99.90;;;;;;6681123;88;20123;-76
2023/09/17 08:42:07;;;;;;;;;;;23.60;99.90;;;;;;6679716;88;20130;-76
2023/09/17 08:52:09;;;;;;;;;;;23.80;99.90;;;;;;6679651;88;20086;-76
2023/09/17 09:02:14;;;;;;;;;;;24.20;99.90;;;;;;6684565;88;20156;-76
2023/09/17 09:12:16;;;;;;;;;;;24.90;99.90;;;;;;6680463;88;20045;-76
2023/09/17 09:22:17;;;;;;;;;;;25.70;99.90;;;;;;6676263;88;20107;-76
2023/09/17 09:32:17;;;;;;;;;;;26.50;99.90;;;;;;6682258;88;20591;-76
2023/09/17 09:42:18;;;;;;;;;;;26.30;99.90;;;;;;6679883;88;20080;-76
2023/09/17 09:52:20;;;;;;;;;;;26.80;99.90;;;;;;6677777;88;20088;-77
2023/09/17 10:02:21;;;;;;;;;;;27.90;99.90;;;;;;6678438;88;20076;-76
2023/09/17 10:12:22;;;;;;;;;;;27.90;99.90;;;;;;6679404;88;20064;-76
2023/09/17 10:22:23;;;;;;;;;;;27.80;99.90;;;;;;6679357;88;20580;-77
2023/09/17 10:32:26;;;;;;;;;;;28.50;99.90;;;;;;6683659;88;20088;-77
2023/09/17 10:42:29;;;;;;;;;;;29.20;99.90;;;;;;6678203;89;20135;-75
2023/09/17 10:52:30;;;;;;;;;;;29.10;99.90;;;;;;6676843;88;20512;-74
2023/09/17 11:02:31;;;;;;;;;;;29.30;99.90;;;;;;6678545;88;20102;-77
2023/09/17 11:12:31;;;;;;;;;;;29.20;99.90;;;;;;6678837;88;20068;-75
2023/09/17 11:22:35;;;;;;;;;;;28.50;99.90;;;;;;6682726;88;20101;-75
2023/09/17 11:32:35;;;;;;;;;;;28.70;99.90;;;;;;6680926;88;20370;-76
2023/09/17 11:42:36;;;;;;;;;;;29.80;99.90;;;;;;6687774;88;20060;-77
2023/09/17 11:52:37;;;;;;;;;;;30.50;99.60;;;;;;6702537;78;20081;-77
2023/09/17 12:02:37;;;;;;;;;;;30.70;97.80;;;;;;6685453;88;20061;-78
2023/09/17 12:12:38;;;;;;;;;;;32.40;96.00;;;;;;6682735;88;20073;-78
2023/09/17 12:22:39;;;;;;;;;;;30.90;97.20;;;;;;6686001;88;20136;-78
2023/09/17 12:32:39;;;;;;;;;;;31.90;96.50;;;;;;6683830;88;21371;-77
2023/09/17 12:42:40;;;;;;;;;;;32.20;95.80;;;;;;6683250;89;20064;-77
2023/09/17 12:52:40;;;;;;;;;;;30.90;97.30;;;;;;6680628;88;20077;-77
2023/09/17 13:02:41;;;;;;;;;;;31.20;97.00;;;;;;6678316;88;20542;-77
2023/09/17 13:12:45;;;;;;;;;;;31.90;96.20;;;;;;6684254;88;20066;-77
2023/09/17 13:22:47;;;;;;;;;;;30.30;97.30;;;;;;6679052;88;20234;-76
2023/09/17 13:32:48;;;;;;;;;;;31.10;96.70;;;;;;6676480;88;20592;-77
2023/09/17 13:42:49;;;;;;;;;;;31.00;96.90;;;;;;6682684;88;20064;-76
2023/09/17 13:52:49;;;;;;;;;;;29.80;97.70;;;;;;6681558;88;20081;-79
2023/09/17 14:02:50;;;;;;;;;;;31.40;97.10;;;;;;6681643;88;20057;-77
2023/09/17 14:12:50;;;;;;;;;;;31.70;96.30;;;;;;6686209;88;20063;-77
2023/09/17 14:22:51;;;;;;;;;;;30.30;97.40;;;;;;6687307;88;20061;-78
2023/09/17 14:32:52;;;;;;;;;;;29.90;97.80;;;;;;6679512;88;20549;-77
2023/09/17 14:42:53;;;;;;;;;;;30.30;98.00;;;;;;6686345;88;20069;-78
2023/09/17 14:52:53;;;;;;;;;;;29.80;98.30;;;;;;6684473;88;20102;-77
2023/09/17 15:02:54;;;;;;;;;;;30.10;98.10;;;;;;6688399;88;20064;-76
2023/09/17 15:12:54;;;;;;;;;;;30.80;97.00;;;;;;6677305;88;20224;-77
2023/09/17 15:22:55;;;;;;;;;;;30.30;98.20;;;;;;6677590;88;20040;-77
2023/09/17 15:32:55;;;;;;;;;;;29.50;99.30;;;;;;6676825;88;20540;-77
2023/09/17 15:42:56;;;;;;;;;;;28.90;99.90;;;;;;6678384;88;20860;-77
2023/09/17 15:52:56;;;;;;;;;;;29.00;99.90;;;;;;6682135;88;20209;-77
2023/09/17 16:02:57;;;;;;;;;;;28.70;99.90;;;;;;6684384;88;20073;-77
2023/09/17 16:12:57;;;;;;;;;;;28.60;99.90;;;;;;6674700;88;20543;-78
2023/09/17 16:22:58;;;;;;;;;;;28.40;99.90;;;;;;6681448;88;20511;-78
2023/09/17 16:32:58;;;;;;;;;;;28.00;99.90;;;;;;6677868;88;20091;-78
2023/09/17 16:42:59;;;;;;;;;;;28.10;99.90;;;;;;6676364;88;20484;-79
2023/09/17 16:52:59;;;;;;;;;;;27.80;99.90;;;;;;6677883;88;20121;-77
2023/09/17 17:03:00;;;;;;;;;;;27.50;99.90;;;;;;6684758;88;20078;-78
2023/09/17 17:13:00;;;;;;;;;;;27.30;99.90;;;;;;6683349;88;20060;-77
2023/09/17 17:23:01;;;;;;;;;;;27.00;99.90;;;;;;6687475;88;20189;-77
2023/09/17 17:33:01;;;;;;;;;;;26.60;99.90;;;;;;6681147;88;20549;-77
2023/09/17 17:43:02;;;;;;;;;;;26.30;99.90;;;;;;6687892;88;20090;-77
2023/09/17 17:53:02;;;;;;;;;;;26.10;99.90;;;;;;6686338;88;20079;-77
2023/09/17 18:03:03;;;;;;;;;;;25.70;99.90;;;;;;6683482;88;20139;-78
2023/09/17 18:13:04;;;;;;;;;;;25.30;99.90;;;;;;6669117;89;20098;-77
2023/09/17 18:23:04;;;;;;;;;;;24.90;99.90;;;;;;6677660;88;20505;-78
2023/09/17 18:33:06;;;;;;;;;;;24.50;99.90;;;;;;6685241;88;20073;-78
2023/09/17 18:43:06;;;;;;;;;;;24.30;99.90;;;;;;6682015;88;20212;-78
2023/09/17 18:53:07;;;;;;;;;;;24.00;99.90;;;;;;6684453;88;20099;-79
2023/09/17 19:03:07;;;;;;;;;;;23.80;99.90;;;;;;6682475;88;20060;-79
2023/09/17 19:13:08;;;;;;;;;;;23.60;99.90;;;;;;6686355;89;20070;-80
2023/09/17 19:23:08;;;;;;;;;;;23.50;99.90;;;;;;6689670;89;20117;-79
2023/09/17 19:33:09;;;;;;;;;;;23.30;99.90;;;;;;6696863;78;20185;-78
2023/09/17 19:43:09;;;;;;;;;;;23.20;99.90;;;;;;6697455;88;20060;-77
2023/09/17 19:53:09;;;;;;;;;;;23.10;99.90;;;;;;6682895;88;20075;-76
2023/09/17 20:03:10;;;;;;;;;;;22.90;99.90;;;;;;6677830;88;20074;-76
2023/09/17 20:13:10;;;;;;;;;;;22.80;99.90;;;;;;6686999;88;20121;-77
2023/09/17 20:23:11;;;;;;;;;;;22.50;99.90;;;;;;6677526;88;20438;-76
2023/09/17 20:33:11;;;;;;;;;;;22.30;99.90;;;;;;6683999;88;20063;-76
2023/09/17 20:43:12;;;;;;;;;;;22.40;99.90;;;;;;6684602;88;20064;-76
2023/09/17 20:53:12;;;;;;;;;;;22.30;99.90;;;;;;6679422;88;20114;-77
2023/09/17 21:03:14;;;;;;;;;;;22.20;99.90;;;;;;6681681;88;20065;-76
2023/09/17 21:13:15;;;;;;;;;;;21.80;99.90;;;;;;6684523;88;20179;-76
2023/09/17 21:23:16;;;;;;;;;;;21.70;99.90;;;;;;6682537;88;20518;-76
2023/09/17 21:33:16;;;;;;;;;;;21.50;99.90;;;;;;6680422;88;20124;-75
2023/09/17 21:43:17;;;;;;;;;;;21.90;99.90;;;;;;6675655;88;20491;-76
2023/09/17 21:53:17;;;;;;;;;;;21.90;99.90;;;;;;6661778;88;20092;-76
2023/09/17 22:03:18;;;;;;;;;;;21.80;99.90;;;;;;6667687;88;20110;-76
2023/09/17 22:13:19;;;;;;;;;;;21.70;99.90;;;;;;6652849;88;20647;-76
2023/09/17 22:23:20;;;;;;;;;;;21.70;99.90;;;;;;6679560;88;20123;-76
2023/09/17 22:33:20;;;;;;;;;;;21.70;99.90;;;;;;6679125;88;20085;-75
2023/09/17 22:43:21;;;;;;;;;;;21.70;99.90;;;;;;6679121;88;20524;-76
2023/09/17 22:53:21;;;;;;;;;;;21.60;99.90;;;;;;6666176;89;20140;-77
2023/09/17 23:03:21;;;;;;;;;;;21.40;99.90;;;;;;6677733;88;20102;-76
2023/09/17 23:13:24;;;;;;;;;;;21.40;99.90;;;;;;6660146;88;20061;-76
2023/09/17 23:23:24;;;;;;;;;;;21.30;99.90;;;;;;6686384;88;20237;-77
2023/09/17 23:33:25;;;;;;;;;;;21.30;99.90;;;;;;6679547;88;20209;-76
2023/09/17 23:43:25;;;;;;;;;;;21.30;99.90;;;;;;6686579;88;20156;-76
2023/09/17 23:53:26;;;;;;;;;;;21.40;99.90;;;;;;6685139;88;20122;-76
